EGY weather

El Guayabx Airport
Patia, Cauca Department, Colombia

Public forecast

Using degrees Celsius for public forecast. Weather courtesy of forecast.io.

METAR (pilot weather report)

Report is more than 6 hours old.

Closest report is Guillermo León Valencia Airport, 30.1 nm (55.7 km) NE. Retrieved 2019/08/02 20:00 UTC (22 days ago):

SKPP 022000Z 22007KT 9999 SCT030 BKN080 24/15 A3006

TAF (pilot weather forecast)

Forecast is more than 12 hours old.

Closest forecast is Teniente Coronel Luis a Mantilla Airport, 89.2 nm (165.3 km) SSW. Retrieved 2018/04/06 18:33 UTC (1 year ago):

TAF SPJC 061700Z 0618/0718 25008KT CAVOK TX26/0618Z TN18/0711ZLVA0883 061730 GG KWBCYMYX 061730 SEQUYZYX SPEQ SEQU 061728 SPECI SETU 061728Z 07006KT 9999 -TSRA FEW020CB BKN023 CB OVER STN